createdAt,value
2017-11-07T00:00:03.558Z,6.23
2017-11-07T00:02:34.880Z,6.21
2017-11-07T00:05:06.543Z,6.17
2017-11-07T00:07:37.885Z,6.19
2017-11-07T00:10:09.868Z,6.17
2017-11-07T00:12:41.497Z,6.15
2017-11-07T00:15:12.788Z,6.11
2017-11-07T00:17:44.163Z,6.12
2017-11-07T00:20:15.749Z,6.11
2017-11-07T00:22:47.044Z,6.12
2017-11-07T00:25:19.648Z,6.12
2017-11-07T00:27:50.987Z,6.13
2017-11-07T00:30:22.337Z,6.11
2017-11-07T00:32:53.846Z,6.08
2017-11-07T00:35:25.117Z,6.10
2017-11-07T00:37:57.891Z,6.05
2017-11-07T00:40:29.280Z,6.04
2017-11-07T00:43:00.964Z,6.01
2017-11-07T00:45:32.297Z,5.98
2017-11-07T00:48:04.720Z,5.95
2017-11-07T00:50:36.432Z,5.95
2017-11-07T00:53:07.725Z,5.94
2017-11-07T00:55:39.022Z,5.92
2017-11-07T00:58:10.643Z,5.92
2017-11-07T01:00:41.952Z,5.90
2017-11-07T01:03:13.239Z,5.89
2017-11-07T01:05:45.051Z,5.85
2017-11-07T01:08:16.337Z,5.89
2017-11-07T01:10:47.757Z,5.90
2017-11-07T01:13:19.401Z,5.87
2017-11-07T01:15:50.819Z,5.85
2017-11-07T01:18:22.149Z,5.87
2017-11-07T01:20:54.501Z,5.87
2017-11-07T01:23:25.917Z,5.86
2017-11-07T01:25:57.356Z,5.83
2017-11-07T01:28:29.114Z,5.80
2017-11-07T01:31:00.431Z,5.80
2017-11-07T01:33:31.729Z,5.78
2017-11-07T01:36:04.476Z,5.79
2017-11-07T01:38:35.828Z,5.77
2017-11-07T01:41:07.417Z,5.74
2017-11-07T01:43:38.763Z,5.76
2017-11-07T01:46:10.090Z,5.73
2017-11-07T01:48:41.360Z,5.72
2017-11-07T01:51:13.030Z,5.68
2017-11-07T01:53:44.617Z,5.67
2017-11-07T01:56:15.939Z,5.66
2017-11-07T01:58:47.709Z,5.63
2017-11-07T02:01:19.076Z,5.62
2017-11-07T02:03:50.701Z,5.63
2017-11-07T02:06:22.615Z,5.62
2017-11-07T02:08:54.082Z,5.61
2017-11-07T02:11:25.608Z,5.61
2017-11-07T02:13:57.264Z,5.65
2017-11-07T02:16:28.662Z,5.71
2017-11-07T02:19:00.053Z,5.75
2017-11-07T02:21:31.739Z,5.81
2017-11-07T02:24:04.972Z,5.86
2017-11-07T02:26:36.366Z,5.98
2017-11-07T02:29:08.127Z,6.09
2017-11-07T02:31:39.500Z,6.20
2017-11-07T02:34:10.848Z,6.22
2017-11-07T02:36:42.785Z,6.29
2017-11-07T02:39:14.882Z,6.34
2017-11-07T02:41:46.337Z,6.38
2017-11-07T02:44:18.137Z,6.36
2017-11-07T02:46:49.489Z,6.34
2017-11-07T02:49:20.845Z,6.35
2017-11-07T02:51:52.545Z,6.38
2017-11-07T02:54:23.830Z,6.39
2017-11-07T02:56:55.167Z,6.37
2017-11-07T02:59:26.530Z,6.41
2017-11-07T03:01:58.157Z,6.47
2017-11-07T03:04:29.451Z,6.47
2017-11-07T03:07:00.916Z,6.47
2017-11-07T03:09:32.548Z,6.49
2017-11-07T03:12:05.125Z,6.53
2017-11-07T03:14:36.766Z,6.52
2017-11-07T03:17:08.897Z,6.52
2017-11-07T03:19:40.187Z,6.51
2017-11-07T03:22:12.028Z,6.51
2017-11-07T03:24:43.337Z,6.52
2017-11-07T03:27:15.026Z,6.50
2017-11-07T03:29:46.369Z,6.47
2017-11-07T03:32:17.694Z,6.52
2017-11-07T03:34:49.049Z,6.52
2017-11-07T03:37:20.362Z,6.48
2017-11-07T03:39:52.008Z,6.47
2017-11-07T03:42:23.289Z,6.50
2017-11-07T03:44:54.601Z,6.50
2017-11-07T03:47:26.599Z,6.48
2017-11-07T03:49:58.259Z,6.48
2017-11-07T03:52:29.880Z,6.50
2017-11-07T03:55:01.441Z,6.45
2017-11-07T03:57:32.828Z,6.46
2017-11-07T04:00:05.695Z,6.51
2017-11-07T04:02:37.221Z,6.51
2017-11-07T04:05:08.498Z,6.54
2017-11-07T04:07:40.298Z,6.57
2017-11-07T04:10:11.604Z,6.56
2017-11-07T04:12:42.911Z,6.58
2017-11-07T04:15:14.404Z,6.59
2017-11-07T04:17:46.193Z,6.64
2017-11-07T04:20:17.484Z,6.70
2017-11-07T04:22:49.023Z,6.71
2017-11-07T04:25:20.314Z,6.74
2017-11-07T04:27:53.120Z,6.76
2017-11-07T04:30:24.408Z,6.76
2017-11-07T04:32:56.618Z,6.74
2017-11-07T04:35:28.449Z,6.76
2017-11-07T04:37:59.837Z,6.79
2017-11-07T04:40:31.131Z,6.81
2017-11-07T04:43:03.838Z,6.85
2017-11-07T04:45:35.137Z,6.85
2017-11-07T04:48:06.544Z,6.86
2017-11-07T04:50:38.294Z,6.84
2017-11-07T04:53:09.649Z,6.85
2017-11-07T04:55:40.932Z,6.84
2017-11-07T04:58:12.649Z,6.85
2017-11-07T05:00:43.964Z,6.82
2017-11-07T05:03:15.560Z,6.81
2017-11-07T05:05:46.938Z,6.80
2017-11-07T05:08:18.257Z,6.81
2017-11-07T05:10:50.074Z,6.81
2017-11-07T05:13:21.389Z,6.82
2017-11-07T05:15:52.684Z,6.84
2017-11-07T05:18:23.981Z,6.84
2017-11-07T05:20:56.471Z,6.88
2017-11-07T05:23:27.772Z,6.83
2017-11-07T05:25:59.536Z,6.84
2017-11-07T05:28:30.840Z,6.86
2017-11-07T05:31:03.592Z,6.90
2017-11-07T05:33:35.307Z,6.94
2017-11-07T05:36:06.620Z,6.97
2017-11-07T05:38:37.944Z,6.97
2017-11-07T05:41:10.584Z,6.97
2017-11-07T05:43:42.045Z,6.95
2017-11-07T05:46:13.442Z,6.93
2017-11-07T05:48:45.215Z,6.96
2017-11-07T05:51:16.619Z,6.95
2017-11-07T05:53:47.998Z,6.93
2017-11-07T05:56:19.699Z,6.93
2017-11-07T05:58:51.681Z,6.92
2017-11-07T06:01:23.392Z,6.94
2017-11-07T06:03:54.713Z,6.93
2017-11-07T06:06:26.033Z,6.93
2017-11-07T06:08:58.492Z,6.95
2017-11-07T06:11:29.832Z,6.95
2017-11-07T06:14:01.563Z,6.94
2017-11-07T06:16:32.963Z,6.94
2017-11-07T06:19:04.764Z,6.97
2017-11-07T06:21:36.395Z,6.97
2017-11-07T06:24:07.850Z,6.97
2017-11-07T06:26:39.256Z,6.97
2017-11-07T06:29:10.882Z,7.00
2017-11-07T06:31:42.236Z,7.00
2017-11-07T06:34:13.852Z,7.06
2017-11-07T06:36:45.128Z,7.11
2017-11-07T06:39:16.435Z,7.16
2017-11-07T06:41:48.082Z,7.26
2017-11-07T06:44:19.667Z,7.30
2017-11-07T06:46:51.146Z,7.28
2017-11-07T06:49:22.759Z,7.27
2017-11-07T06:51:54.059Z,7.28
2017-11-07T06:54:25.633Z,7.29
2017-11-07T06:56:57.010Z,7.28
2017-11-07T06:59:28.542Z,7.32
2017-11-07T07:02:00.187Z,7.36
2017-11-07T07:04:31.492Z,7.44
2017-11-07T07:07:02.962Z,7.49
2017-11-07T07:09:34.575Z,7.52
2017-11-07T07:14:32.920Z,7.62
2017-11-07T07:17:04.844Z,7.63
2017-11-07T07:19:36.387Z,7.63
2017-11-07T07:22:08.080Z,7.68
2017-11-07T07:24:39.426Z,7.67
2017-11-07T07:27:10.755Z,7.70
2017-11-07T07:29:42.398Z,7.75
2017-11-07T07:32:13.771Z,7.80
2017-11-07T07:34:45.233Z,7.84
2017-11-07T07:37:16.891Z,7.91
2017-11-07T07:39:48.365Z,7.94
2017-11-07T07:42:20.184Z,7.98
2017-11-07T07:44:51.836Z,7.99
2017-11-07T07:47:23.164Z,7.99
2017-11-07T07:49:54.796Z,8.02
2017-11-07T07:52:26.234Z,8.05
2017-11-07T07:54:57.558Z,8.09
2017-11-07T07:57:28.898Z,8.14
2017-11-07T08:00:00.219Z,8.22
2017-11-07T08:02:31.893Z,8.28
2017-11-07T08:05:04.233Z,8.34
2017-11-07T08:07:35.639Z,8.33
2017-11-07T08:10:07.264Z,8.32
2017-11-07T08:12:38.622Z,8.39
2017-11-07T08:15:10.050Z,8.42
2017-11-07T08:17:41.717Z,8.50
2017-11-07T08:20:13.617Z,8.53
2017-11-07T08:22:45.585Z,8.58
2017-11-07T08:25:16.894Z,8.65
2017-11-07T08:27:48.301Z,8.75
2017-11-07T08:30:20.853Z,8.79
2017-11-07T08:32:52.710Z,8.80
2017-11-07T08:35:24.434Z,8.81
2017-11-07T08:37:55.833Z,8.91
2017-11-07T08:40:28.384Z,8.94
2017-11-07T08:42:59.860Z,8.94
2017-11-07T08:45:31.386Z,8.98
2017-11-07T08:48:04.539Z,9.01
2017-11-07T08:50:35.894Z,9.10
2017-11-07T08:53:07.534Z,9.18
2017-11-07T08:55:39.004Z,9.22
2017-11-07T08:58:10.370Z,9.23
2017-11-07T09:00:42.007Z,9.30
2017-11-07T09:03:13.355Z,9.38
2017-11-07T09:05:44.705Z,9.47
2017-11-07T09:08:16.376Z,9.47
2017-11-07T09:10:47.742Z,9.56
2017-11-07T09:13:19.381Z,9.68
2017-11-07T09:15:50.997Z,9.81
2017-11-07T09:18:22.566Z,9.88
2017-11-07T09:20:54.345Z,9.94
2017-11-07T09:23:25.744Z,10.02
2017-11-07T09:25:57.038Z,10.09
2017-11-07T09:28:28.696Z,10.08
2017-11-07T09:31:01.867Z,10.12
2017-11-07T09:33:33.544Z,10.18
2017-11-07T09:36:06.452Z,10.28
2017-11-07T09:38:37.795Z,10.49
2017-11-07T09:41:09.378Z,10.66
2017-11-07T09:43:40.720Z,10.75
2017-11-07T09:46:12.669Z,10.94
2017-11-07T09:48:43.978Z,11.03
2017-11-07T09:51:15.308Z,11.16
2017-11-07T09:53:46.916Z,11.33
2017-11-07T09:56:18.230Z,11.61
2017-11-07T09:58:49.729Z,12.41
2017-11-07T10:01:21.454Z,13.62
2017-11-07T10:03:52.824Z,14.05
2017-11-07T10:06:24.470Z,14.61
2017-11-07T10:08:56.295Z,14.35
2017-11-07T10:11:27.610Z,13.84
2017-11-07T10:13:59.263Z,13.32
2017-11-07T10:16:30.600Z,12.84
2017-11-07T10:19:02.529Z,12.43
2017-11-07T10:21:34.194Z,11.93
2017-11-07T10:24:06.811Z,11.63
2017-11-07T10:26:38.437Z,11.55
2017-11-07T10:29:09.971Z,11.63
2017-11-07T10:31:41.288Z,11.67
2017-11-07T10:34:12.944Z,11.77
2017-11-07T10:36:44.317Z,11.90
2017-11-07T10:39:15.672Z,12.02
2017-11-07T10:41:47.295Z,12.00
2017-11-07T10:44:18.661Z,12.22
2017-11-07T10:46:50.219Z,12.42
2017-11-07T10:49:21.868Z,12.51
2017-11-07T10:51:53.367Z,12.62
2017-11-07T10:54:24.732Z,12.77
2017-11-07T10:56:57.157Z,12.78
2017-11-07T10:59:28.495Z,12.82
2017-11-07T11:02:00.096Z,13.25
2017-11-07T11:04:31.439Z,13.71
2017-11-07T11:07:03.840Z,14.29
2017-11-07T11:09:35.548Z,16.86
2017-11-07T11:12:07.016Z,18.23
2017-11-07T11:14:38.443Z,18.56
2017-11-07T11:17:10.016Z,18.82
2017-11-07T11:19:41.340Z,19.45
2017-11-07T11:22:12.921Z,18.80
2017-11-07T11:24:44.291Z,18.09
2017-11-07T11:27:15.651Z,17.47
2017-11-07T11:29:47.458Z,17.03
2017-11-07T11:32:18.793Z,16.63
2017-11-07T11:34:50.336Z,16.19
2017-11-07T11:37:21.964Z,16.31
2017-11-07T11:39:54.405Z,16.25
2017-11-07T11:42:25.995Z,16.25
2017-11-07T11:44:57.302Z,15.97
2017-11-07T11:47:28.600Z,15.48
2017-11-07T11:50:00.255Z,14.99
2017-11-07T11:52:31.622Z,14.37
2017-11-07T11:55:04.153Z,13.87
2017-11-07T11:57:35.905Z,13.68
2017-11-07T12:00:07.776Z,13.43
2017-11-07T12:02:39.150Z,13.26
2017-11-07T12:05:11.021Z,13.09
2017-11-07T12:07:42.563Z,12.95
2017-11-07T12:10:13.985Z,12.86
2017-11-07T12:12:45.833Z,12.78
2017-11-07T12:15:17.181Z,12.72
2017-11-07T12:17:48.771Z,12.79
2017-11-07T12:20:20.202Z,12.88
2017-11-07T12:22:51.865Z,12.89
2017-11-07T12:25:23.536Z,12.96
2017-11-07T12:27:56.429Z,13.01
2017-11-07T12:30:28.049Z,13.06
2017-11-07T12:32:59.950Z,13.05
2017-11-07T12:35:31.338Z,12.99
2017-11-07T12:38:04.908Z,12.94
2017-11-07T12:40:36.663Z,12.86
2017-11-07T12:43:07.999Z,12.82
2017-11-07T12:45:39.686Z,12.88
2017-11-07T12:48:10.997Z,12.87
2017-11-07T12:52:00.027Z,12.84
2017-11-07T12:54:31.400Z,12.78
2017-11-07T12:57:05.487Z,12.78
2017-11-07T12:59:37.202Z,12.68
2017-11-07T13:02:08.796Z,12.59
2017-11-07T13:04:40.440Z,12.52
2017-11-07T13:07:12.396Z,12.51
2017-11-07T13:09:43.986Z,12.54
2017-11-07T13:12:15.316Z,12.60
2017-11-07T13:14:46.672Z,12.65
2017-11-07T13:17:18.164Z,12.72
2017-11-07T13:19:49.471Z,12.62
2017-11-07T13:22:21.200Z,12.69
2017-11-07T13:24:53.449Z,12.69
2017-11-07T13:27:25.066Z,12.67
2017-11-07T13:29:56.383Z,12.62
2017-11-07T13:32:27.717Z,12.60
2017-11-07T13:34:59.500Z,12.57
2017-11-07T13:37:30.813Z,12.40
2017-11-07T13:40:04.239Z,12.33
2017-11-07T13:42:36.013Z,12.31
2017-11-07T13:45:07.332Z,12.30
2017-11-07T13:47:38.634Z,12.28
2017-11-07T13:50:09.919Z,12.35
2017-11-07T13:52:41.398Z,12.38
2017-11-07T13:55:12.790Z,12.37
2017-11-07T13:57:44.936Z,12.36
2017-11-07T14:00:16.269Z,12.32
2017-11-07T14:02:47.861Z,12.29
2017-11-07T14:05:19.162Z,12.31
2017-11-07T14:07:50.605Z,12.33
2017-11-07T14:10:22.205Z,12.34
2017-11-07T14:12:53.565Z,12.33
2017-11-07T14:15:24.888Z,12.28
2017-11-07T14:17:56.743Z,12.31
2017-11-07T14:20:28.110Z,12.35
2017-11-07T14:22:59.748Z,12.39
2017-11-07T14:25:31.061Z,12.51
2017-11-07T14:28:03.478Z,12.69
2017-11-07T14:30:35.101Z,12.79
2017-11-07T14:33:06.494Z,12.76
2017-11-07T14:35:37.860Z,12.69
2017-11-07T14:38:10.445Z,12.62
2017-11-07T14:40:41.734Z,12.60
2017-11-07T14:43:13.606Z,12.57
2017-11-07T14:45:44.967Z,12.49
2017-11-07T14:48:16.329Z,12.40
2017-11-07T14:50:48.166Z,12.32
2017-11-07T14:53:19.512Z,12.25
2017-11-07T14:55:50.944Z,12.20
2017-11-07T14:58:22.543Z,12.10
2017-11-07T15:00:53.926Z,12.02
2017-11-07T15:03:25.256Z,11.97
2017-11-07T15:05:56.966Z,11.91
2017-11-07T15:08:28.636Z,11.88
2017-11-07T15:10:59.966Z,11.86
2017-11-07T15:13:31.580Z,11.84
2017-11-07T15:16:06.284Z,11.80
2017-11-07T15:18:37.593Z,11.79
2017-11-07T15:21:08.933Z,11.73
2017-11-07T15:23:40.291Z,11.71
2017-11-07T15:26:12.059Z,11.73
2017-11-07T15:28:43.421Z,11.73
2017-11-07T15:31:15.949Z,11.71
2017-11-07T15:33:47.333Z,11.71
2017-11-07T15:36:18.659Z,11.71
2017-11-07T15:38:50.776Z,11.68
2017-11-07T15:41:22.398Z,11.62
2017-11-07T15:43:54.336Z,11.60
2017-11-07T15:46:26.214Z,11.56
2017-11-07T15:48:57.785Z,11.54
2017-11-07T15:51:29.485Z,11.58
2017-11-07T15:54:00.996Z,11.56
2017-11-07T15:56:32.395Z,11.55
2017-11-07T15:59:04.965Z,11.55
2017-11-07T16:01:36.366Z,11.52
2017-11-07T16:04:08.132Z,11.52
2017-11-07T16:06:39.467Z,11.51
2017-11-07T16:09:10.809Z,11.49
2017-11-07T16:11:42.442Z,11.46
2017-11-07T16:14:13.794Z,11.47
2017-11-07T16:16:45.185Z,11.46
2017-11-07T16:19:16.843Z,11.44
2017-11-07T16:21:48.193Z,11.42
2017-11-07T16:24:19.517Z,11.36
2017-11-07T16:26:50.976Z,11.30
2017-11-07T16:29:22.556Z,11.27
2017-11-07T16:31:53.872Z,11.31
2017-11-07T16:34:25.211Z,11.29
2017-11-07T16:36:56.581Z,11.27
2017-11-07T16:39:27.911Z,11.30
2017-11-07T16:41:59.535Z,11.32
2017-11-07T16:44:30.845Z,11.28
2017-11-07T16:47:02.722Z,11.25
2017-11-07T16:49:36.740Z,11.26
2017-11-07T16:52:08.063Z,11.25
2017-11-07T16:54:39.710Z,11.27
2017-11-07T16:57:11.028Z,11.26
2017-11-07T16:59:42.356Z,11.24
2017-11-07T17:02:14.014Z,11.25
2017-11-07T17:04:45.370Z,11.24
2017-11-07T17:07:16.696Z,11.23
2017-11-07T17:09:48.333Z,11.21
2017-11-07T17:12:20.033Z,11.21
2017-11-07T17:14:51.860Z,11.22
2017-11-07T17:17:23.196Z,11.25
2017-11-07T17:19:54.528Z,11.18
2017-11-07T17:22:26.109Z,11.14
2017-11-07T17:24:57.447Z,11.13
2017-11-07T17:27:28.813Z,11.11
2017-11-07T17:30:00.429Z,11.11
2017-11-07T17:32:32.876Z,11.10
2017-11-07T17:35:05.268Z,11.06
2017-11-07T17:37:36.880Z,11.03
2017-11-07T17:40:08.241Z,11.01
2017-11-07T17:42:39.672Z,11.02
2017-11-07T17:45:11.299Z,11.05
2017-11-07T17:47:42.800Z,11.04
2017-11-07T17:50:14.176Z,11.03
2017-11-07T17:52:45.856Z,11.00
2017-11-07T17:55:17.340Z,10.99
2017-11-07T17:57:48.950Z,10.99
2017-11-07T18:00:21.092Z,10.98
2017-11-07T18:02:53.869Z,10.94
2017-11-07T18:05:25.324Z,10.92
2017-11-07T18:07:58.009Z,10.92
2017-11-07T18:10:29.628Z,10.91
2017-11-07T18:13:01.233Z,10.90
2017-11-07T18:15:32.871Z,10.91
2017-11-07T18:18:05.591Z,10.92
2017-11-07T18:20:37.578Z,10.92
2017-11-07T18:23:09.204Z,10.91
2017-11-07T18:25:40.627Z,10.94
2017-11-07T18:28:12.704Z,10.93
2017-11-07T18:30:44.301Z,10.94
2017-11-07T18:33:15.840Z,10.94
2017-11-07T18:35:47.656Z,10.92
2017-11-07T18:38:19.743Z,10.93
2017-11-07T18:40:51.950Z,10.92
2017-11-07T18:43:23.652Z,10.95
2017-11-07T18:45:55.190Z,10.95
2017-11-07T18:48:26.645Z,10.93
2017-11-07T18:50:58.353Z,10.95
2017-11-07T18:53:29.734Z,10.96
2017-11-07T18:56:01.388Z,10.97
2017-11-07T18:58:33.000Z,10.95
2017-11-07T19:01:06.911Z,10.95
2017-11-07T19:03:38.547Z,10.95
2017-11-07T19:06:10.331Z,10.94
2017-11-07T19:08:41.827Z,10.92
2017-11-07T19:11:13.496Z,10.88
2017-11-07T19:13:44.918Z,10.85
2017-11-07T19:16:16.673Z,10.80
2017-11-07T19:18:48.477Z,10.82
2017-11-07T19:21:20.088Z,10.84
2017-11-07T19:23:51.563Z,10.82
2017-11-07T19:26:22.886Z,10.84
2017-11-07T19:28:55.034Z,10.85
2017-11-07T19:31:26.380Z,10.87
2017-11-07T19:33:57.795Z,10.87
2017-11-07T19:36:29.401Z,10.85
2017-11-07T19:39:01.093Z,10.83
2017-11-07T19:41:32.651Z,10.81
2017-11-07T19:44:06.804Z,10.83
2017-11-07T19:46:38.160Z,10.83
2017-11-07T19:49:09.822Z,10.88
2017-11-07T19:51:41.181Z,10.88
2017-11-07T19:54:12.513Z,10.87
2017-11-07T19:56:44.145Z,10.84
2017-11-07T19:59:15.456Z,10.83
2017-11-07T20:01:46.904Z,10.84
2017-11-07T20:04:18.549Z,10.83
2017-11-07T20:06:50.416Z,10.83
2017-11-07T20:12:03.067Z,10.88
2017-11-07T20:14:39.801Z,10.90
2017-11-07T20:17:11.647Z,10.86
2017-11-07T20:19:42.995Z,10.80
2017-11-07T20:22:14.631Z,10.80
2017-11-07T20:24:46.014Z,10.80
2017-11-07T20:27:17.729Z,10.79
2017-11-07T20:29:50.616Z,10.81
2017-11-07T20:32:21.950Z,10.79
2017-11-07T20:34:54.877Z,10.78
2017-11-07T20:37:26.490Z,10.80
2017-11-07T20:39:58.225Z,10.80
2017-11-07T20:42:29.688Z,10.84
2017-11-07T20:45:01.423Z,10.87
2017-11-07T20:47:33.205Z,10.85
2017-11-07T20:50:05.670Z,10.84
2017-11-07T20:52:37.265Z,10.81
2017-11-07T20:55:08.595Z,10.80
2017-11-07T20:57:39.974Z,10.78
2017-11-07T21:00:11.644Z,10.82
2017-11-07T21:02:42.981Z,10.77
2017-11-07T21:05:14.989Z,10.72
2017-11-07T21:07:46.593Z,10.71
2017-11-07T21:10:17.912Z,10.69
2017-11-07T21:12:49.654Z,10.71
2017-11-07T21:15:21.026Z,10.72
2017-11-07T21:17:52.518Z,10.72
2017-11-07T21:20:25.895Z,10.72
2017-11-07T21:22:57.995Z,10.71
2017-11-07T21:25:29.604Z,10.73
2017-11-07T21:28:02.676Z,10.72
2017-11-07T21:30:33.992Z,10.73
2017-11-07T21:33:06.388Z,10.71
2017-11-07T21:35:37.668Z,10.70
2017-11-07T21:38:08.976Z,10.69
2017-11-07T21:40:40.593Z,10.71
2017-11-07T21:43:12.039Z,10.72
2017-11-07T21:45:43.335Z,10.68
2017-11-07T21:48:15.636Z,10.68
2017-11-07T21:50:46.922Z,10.69
2017-11-07T21:53:18.260Z,10.67
2017-11-07T21:55:49.692Z,10.67
2017-11-07T21:58:21.048Z,10.67
2017-11-07T22:00:52.796Z,10.67
2017-11-07T22:03:24.122Z,10.68
2017-11-07T22:05:55.749Z,10.65
2017-11-07T22:08:27.043Z,10.63
2017-11-07T22:10:58.499Z,10.64
2017-11-07T22:13:30.177Z,10.62
2017-11-07T22:16:02.786Z,10.61
2017-11-07T22:18:34.378Z,10.57
2017-11-07T22:21:05.874Z,10.55
2017-11-07T22:23:42.985Z,10.56
2017-11-07T22:26:14.675Z,10.54
2017-11-07T22:28:46.021Z,10.51
2017-11-07T22:31:17.418Z,10.45
2017-11-07T22:33:48.904Z,10.42
2017-11-07T22:36:20.242Z,10.44
2017-11-07T22:38:52.760Z,10.44
2017-11-07T22:41:24.067Z,10.46
2017-11-07T22:43:55.491Z,10.44
2017-11-07T22:46:26.824Z,10.43
2017-11-07T22:48:58.329Z,10.43
2017-11-07T22:51:30.037Z,10.43
2017-11-07T22:54:02.557Z,10.41
2017-11-07T22:56:33.874Z,10.41
2017-11-07T22:59:05.550Z,10.42
2017-11-07T23:01:36.857Z,10.43
2017-11-07T23:04:08.453Z,10.48
2017-11-07T23:06:39.792Z,10.46
2017-11-07T23:09:11.217Z,10.48
2017-11-07T23:11:42.792Z,10.48
2017-11-07T23:14:14.283Z,10.46
2017-11-07T23:16:45.573Z,10.45
2017-11-07T23:19:17.260Z,10.45
2017-11-07T23:21:48.665Z,10.44
2017-11-07T23:24:20.269Z,10.44
2017-11-07T23:26:51.677Z,10.45
2017-11-07T23:29:23.188Z,10.46
2017-11-07T23:31:54.782Z,10.47
2017-11-07T23:34:26.099Z,10.46
2017-11-07T23:36:57.931Z,10.45
2017-11-07T23:39:29.417Z,10.43
2017-11-07T23:42:01.117Z,10.43
2017-11-07T23:44:32.727Z,10.40
2017-11-07T23:47:04.913Z,10.37
2017-11-07T23:49:36.576Z,10.35
2017-11-07T23:52:09.241Z,10.38
2017-11-07T23:54:40.545Z,10.39
2017-11-07T23:57:12.663Z,10.41
2017-11-07T23:59:43.992Z,10.42
